Wetterdaten: Woche 24.11.08 - 30.11.08 (KW48)
Datum Zeit Temperatur Luftfeuchte Luftdruck Niederschlag Wind Richtung Sonnenschein Solar Taupunkt Windchill Windben
24.11.2008 00:00 0.5 C 97 % 992.4 hPa 1.0 l/m 2.3 km/h (1 Bft) S-SW 0.00 h 0 W/m 0.1 C 0.4 C 4.7 km/h (1 Bft)
24.11.2008 01:00 0.5 C 97 % 992.7 hPa 1.4 l/m 1.9 km/h (1 Bft) S 0.00 h 0 W/m 0.2 C 0.5 C 3.9 km/h (1 Bft)
24.11.2008 02:00 0.6 C 98 % 992.9 hPa 1.4 l/m 0.7 km/h (0 Bft) S 0.00 h 0 W/m 0.3 C 0.6 C 1.7 km/h (1 Bft)
24.11.2008 03:00 0.9 C 98 % 992.9 hPa 1.4 l/m 2.6 km/h (1 Bft) S-SW 0.00 h 0 W/m 0.6 C 0.7 C 4.7 km/h (1 Bft)
24.11.2008 04:00 1.3 C 98 % 992.4 hPa 0.8 l/m 4.5 km/h (1 Bft) S-SO 0.00 h 0 W/m 1.1 C 0.1 C 7.1 km/h (2 Bft)
24.11.2008 05:00 1.6 C 98 % 992.3 hPa 0.8 l/m 0.7 km/h (0 Bft) S-SO 0.00 h 0 W/m 1.4 C 1.5 C 1.7 km/h (1 Bft)
24.11.2008 06:00 1.4 C 98 % 992.2 hPa 0.4 l/m 1.5 km/h (1 Bft) S-SO 0.00 h 0 W/m 1.1 C 1.4 C 3.3 km/h (1 Bft)
24.11.2008 07:00 1.3 C 98 % 992.4 hPa 0.2 l/m 3.0 km/h (1 Bft) S-SO 0.05 h 10 W/m 1.0 C 0.8 C 5.0 km/h (1 Bft)
24.11.2008 08:00 1.3 C 98 % 993.2 hPa 0.4 l/m 2.0 km/h (1 Bft) S-SW 0.12 h 22 W/m 1.0 C 1.0 C 3.6 km/h (1 Bft)
24.11.2008 09:00 1.9 C 98 % 993.5 hPa 0.0 l/m 2.0 km/h (1 Bft) S-SO 0.08 h 82 W/m 1.6 C 1.9 C 4.5 km/h (1 Bft)
24.11.2008 10:00 2.5 C 97 % 994.0 hPa 0.2 l/m 0.4 km/h (0 Bft) SW 0.23 h 125 W/m 2.1 C 2.5 C 1.5 km/h (1 Bft)
24.11.2008 11:00 2.9 C 98 % 994.5 hPa 0.0 l/m 1.7 km/h (1 Bft) W-NW 0.05 h 143 W/m 2.6 C 2.6 C 3.5 km/h (1 Bft)
24.11.2008 12:00 3.1 C 95 % 995.0 hPa 0.0 l/m 5.9 km/h (2 Bft) W-SW 0.18 h 168 W/m 2.4 C 1.7 C 9.1 km/h (2 Bft)
24.11.2008 13:00 3.4 C 91 % 995.3 hPa 0.0 l/m 5.3 km/h (1 Bft) W 0.20 h 159 W/m 2.1 C 2.3 C 8.2 km/h (2 Bft)
24.11.2008 14:00 3.7 C 87 % 995.5 hPa 0.0 l/m 4.6 km/h (1 Bft) W 0.53 h 128 W/m 1.7 C 2.8 C 7.3 km/h (2 Bft)
24.11.2008 15:00 3.1 C 89 % 996.1 hPa 0.0 l/m 2.3 km/h (1 Bft) W-NW 0.00 h 44 W/m 1.4 C 3.0 C 4.3 km/h (1 Bft)
24.11.2008 16:00 2.4 C 90 % 996.7 hPa 0.0 l/m 1.9 km/h (1 Bft) N-NO 0.13 h 20 W/m 0.9 C 2.3 C 3.4 km/h (1 Bft)
24.11.2008 17:00 1.8 C 91 % 997.4 hPa 0.0 l/m 1.5 km/h (1 Bft) O-SO 0.00 h 0 W/m 0.5 C 1.7 C 2.7 km/h (1 Bft)
24.11.2008 18:00 1.8 C 93 % 998.3 hPa 0.0 l/m 1.0 km/h (0 Bft) SO 0.00 h 0 W/m 0.7 C 1.7 C 2.5 km/h (1 Bft)
24.11.2008 19:00 1.4 C 93 % 999.0 hPa 0.0 l/m 2.5 km/h (1 Bft) O-SO 0.00 h 0 W/m 0.4 C 1.1 C 4.0 km/h (1 Bft)
24.11.2008 20:00 0.9 C 93 % 999.6 hPa 0.0 l/m 1.3 km/h (1 Bft) O-SO 0.00 h 0 W/m -0.1 C 0.9 C 1.7 km/h (1 Bft)
24.11.2008 21:00 0.6 C 94 % 1000.3 hPa 0.0 l/m 0.1 km/h (0 Bft) O-SO 0.00 h 0 W/m -0.3 C 0.6 C 0.2 km/h (0 Bft)
24.11.2008 22:00 0.5 C 95 % 1000.8 hPa 0.0 l/m 0.3 km/h (0 Bft) O-SO 0.00 h 0 W/m -0.3 C 0.5 C 0.8 km/h (0 Bft)
24.11.2008 23:00 0.5 C 95 % 1001.5 hPa 0.0 l/m 0.4 km/h (0 Bft) O-SO 0.00 h 0 W/m -0.1 C 0.5 C 1.0 km/h (0 Bft)
25.11.2008 00:00 0.6 C 96 % 1002.2 hPa 0.0 l/m 0.4 km/h (0 Bft) O-SO 0.00 h 0 W/m 0.0 C 0.6 C 0.9 km/h (0 Bft)
25.11.2008 01:00 0.6 C 96 % 1002.7 hPa 0.0 l/m 0.1 km/h (0 Bft) O-SO 0.00 h 0 W/m 0.1 C 0.6 C 0.6 km/h (0 Bft)
25.11.2008 02:00 0.5 C 97 % 1003.4 hPa 0.0 l/m 0.0 km/h (0 Bft) N 0.00 h 0 W/m 0.1 C 0.5 C 0.2 km/h (0 Bft)
25.11.2008 03:00 0.5 C 97 % 1004.2 hPa 0.0 l/m 0.0 km/h (0 Bft) O-SO 0.00 h 0 W/m 0.0 C 0.5 C 0.2 km/h (0 Bft)
25.11.2008 04:00 0.4 C 97 % 1004.7 hPa 0.0 l/m 0.2 km/h (0 Bft) O-SO 0.00 h 0 W/m 0.0 C 0.4 C 0.6 km/h (0 Bft)
25.11.2008 05:00 0.4 C 97 % 1005.5 hPa 0.0 l/m 1.3 km/h (1 Bft) N-NO 0.00 h 0 W/m -0.1 C 0.3 C 3.4 km/h (1 Bft)
25.11.2008 06:00 0.2 C 97 % 1006.4 hPa 0.0 l/m 1.0 km/h (0 Bft) N-NO 0.00 h 0 W/m -0.2 C 0.1 C 2.3 km/h (1 Bft)
25.11.2008 07:00 -0.1 C 97 % 1007.5 hPa 0.0 l/m 2.2 km/h (1 Bft) W 0.00 h 0 W/m -0.6 C -0.5 C 4.1 km/h (1 Bft)
25.11.2008 08:00 -0.4 C 97 % 1008.8 hPa 0.0 l/m 1.2 km/h (1 Bft) W 0.00 h 20 W/m -0.8 C -0.5 C 3.1 km/h (1 Bft)
25.11.2008 09:00 0.0 C 96 % 1010.0 hPa 0.0 l/m 2.1 km/h (1 Bft) O-SO 0.13 h 89 W/m -0.5 C -0.3 C 3.9 km/h (1 Bft)
25.11.2008 10:00 0.8 C 92 % 1011.0 hPa 0.0 l/m 1.8 km/h (1 Bft) W-NW 0.08 h 93 W/m -0.4 C 0.6 C 3.6 km/h (1 Bft)
25.11.2008 11:00 1.8 C 87 % 1011.5 hPa 0.0 l/m 1.9 km/h (1 Bft) W-NW 0.70 h 237 W/m -0.2 C 1.5 C 4.3 km/h (1 Bft)
25.11.2008 12:00 2.1 C 82 % 1012.1 hPa 0.0 l/m 4.7 km/h (1 Bft) W-NW 0.35 h 201 W/m -0.6 C 1.1 C 7.3 km/h (2 Bft)
25.11.2008 13:00 1.8 C 82 % 1012.8 hPa 0.0 l/m 2.9 km/h (1 Bft) W-NW 0.07 h 119 W/m -0.9 C 1.5 C 5.2 km/h (1 Bft)
25.11.2008 14:00 2.4 C 79 % 1013.5 hPa 0.0 l/m 4.7 km/h (1 Bft) W-NW 0.70 h 184 W/m -0.9 C 1.5 C 7.3 km/h (2 Bft)
25.11.2008 15:00 2.2 C 78 % 1014.4 hPa 0.0 l/m 5.0 km/h (1 Bft) W-NW 0.92 h 101 W/m -1.2 C 1.1 C 7.7 km/h (2 Bft)
25.11.2008 16:00 1.0 C 83 % 1015.5 hPa 0.0 l/m 0.9 km/h (0 Bft) W 0.02 h 17 W/m -1.6 C 1.0 C 1.8 km/h (1 Bft)
25.11.2008 17:00 -0.0 C 88 % 1016.6 hPa 0.0 l/m 0.6 km/h (0 Bft) O-SO 0.00 h 0 W/m -1.9 C -0.1 C 1.3 km/h (1 Bft)
25.11.2008 18:00 -0.3 C 91 % 1017.6 hPa 0.0 l/m 0.9 km/h (0 Bft) O-SO 0.00 h 0 W/m -1.7 C -0.3 C 1.7 km/h (1 Bft)
25.11.2008 19:00 -0.8 C 93 % 1018.5 hPa 0.0 l/m 0.5 km/h (0 Bft) O-SO 0.00 h 0 W/m -1.8 C -0.8 C 1.2 km/h (1 Bft)
25.11.2008 20:00 -0.9 C 93 % 1019.5 hPa 0.0 l/m 0.4 km/h (0 Bft) O-SO 0.00 h 0 W/m -1.9 C -0.9 C 0.9 km/h (0 Bft)
25.11.2008 21:00 -1.3 C 93 % 1020.4 hPa 0.0 l/m 3.2 km/h (1 Bft) O-SO 0.00 h 0 W/m -2.3 C -2.0 C 4.6 km/h (1 Bft)
25.11.2008 22:00 -1.4 C 94 % 1021.2 hPa 0.0 l/m 2.4 km/h (1 Bft) O-SO 0.00 h 0 W/m -2.3 C -1.6 C 3.7 km/h (1 Bft)
25.11.2008 23:00 -1.7 C 94 % 1021.5 hPa 0.0 l/m 2.5 km/h (1 Bft) O-SO 0.00 h 0 W/m -2.6 C -1.9 C 4.1 km/h (1 Bft)
26.11.2008 00:00 -2.2 C 94 % 1022.2 hPa 0.0 l/m 0.1 km/h (0 Bft) O-SO 0.00 h 0 W/m -3.0 C -2.2 C 0.5 km/h (0 Bft)
26.11.2008 01:00 -2.3 C 94 % 1022.9 hPa 0.0 l/m 0.8 km/h (0 Bft) O-SO 0.00 h 0 W/m -3.1 C -2.3 C 1.6 km/h (1 Bft)
26.11.2008 02:00 -2.6 C 95 % 1023.4 hPa 0.0 l/m 1.5 km/h (1 Bft) O-SO 0.00 h 0 W/m -3.3 C -2.6 C 3.1 km/h (1 Bft)
26.11.2008 03:00 -2.7 C 95 % 1023.6 hPa 0.0 l/m 0.5 km/h (0 Bft) O-SO 0.00 h 0 W/m -3.4 C -2.7 C 1.0 km/h (0 Bft)
26.11.2008 04:00 -2.4 C 96 % 1024.4 hPa 0.0 l/m 1.4 km/h (1 Bft) O-SO 0.00 h 0 W/m -3.0 C -2.7 C 2.6 km/h (1 Bft)
26.11.2008 05:00 -2.4 C 96 % 1024.8 hPa 0.0 l/m 0.0 km/h (0 Bft) N 0.00 h 0 W/m -2.9 C -2.4 C 0.0 km/h (0 Bft)
26.11.2008 06:00 -2.3 C 96 % 1025.3 hPa 0.0 l/m 0.1 km/h (0 Bft) O-SO 0.00 h 0 W/m -2.8 C -2.3 C 0.4 km/h (0 Bft)
26.11.2008 07:00 -2.3 C 96 % 1025.9 hPa 0.0 l/m 0.5 km/h (0 Bft) O-SO 0.00 h 6 W/m -2.8 C -2.3 C 1.2 km/h (1 Bft)
26.11.2008 08:00 -2.2 C 96 % 1026.8 hPa 0.0 l/m 0.1 km/h (0 Bft) O-SO 0.45 h 45 W/m -2.7 C -2.2 C 0.7 km/h (0 Bft)
26.11.2008 09:00 -1.1 C 94 % 1027.4 hPa 0.0 l/m 0.5 km/h (0 Bft) O-SO 0.70 h 113 W/m -2.0 C -1.1 C 1.4 km/h (1 Bft)
26.11.2008 10:00 -0.4 C 89 % 1027.8 hPa 0.0 l/m 0.6 km/h (0 Bft) O-SO 0.18 h 142 W/m -1.9 C -0.4 C 1.8 km/h (1 Bft)
26.11.2008 11:00 0.9 C 84 % 1027.8 hPa 0.0 l/m 3.7 km/h (1 Bft) O-SO 1.00 h 303 W/m -1.5 C -0.0 C 5.8 km/h (2 Bft)
26.11.2008 12:00 2.2 C 79 % 1027.0 hPa 0.0 l/m 3.2 km/h (1 Bft) SO 1.00 h 324 W/m -1.0 C 1.7 C 5.6 km/h (1 Bft)
26.11.2008 13:00 2.8 C 76 % 1026.8 hPa 0.0 l/m 2.2 km/h (1 Bft) O 1.00 h 280 W/m -1.0 C 2.6 C 4.9 km/h (1 Bft)
26.11.2008 14:00 2.8 C 76 % 1026.8 hPa 0.0 l/m 3.6 km/h (1 Bft) O-SO 1.00 h 201 W/m -0.9 C 2.3 C 5.9 km/h (2 Bft)
26.11.2008 15:00 2.6 C 78 % 1026.8 hPa 0.0 l/m 5.2 km/h (1 Bft) SO 0.83 h 97 W/m -0.8 C 1.4 C 8.3 km/h (2 Bft)
26.11.2008 16:00 1.3 C 82 % 1027.3 hPa 0.0 l/m 2.6 km/h (1 Bft) SO 0.03 h 16 W/m -1.4 C 1.0 C 3.9 km/h (1 Bft)
26.11.2008 17:00 0.1 C 85 % 1027.9 hPa 0.0 l/m 1.8 km/h (1 Bft) SO 0.00 h 0 W/m -2.1 C -0.0 C 3.0 km/h (1 Bft)
26.11.2008 18:00 -0.8 C 89 % 1028.2 hPa 0.0 l/m 0.7 km/h (0 Bft) O-SO 0.00 h 0 W/m -2.4 C -0.9 C 1.2 km/h (1 Bft)
26.11.2008 19:00 -1.5 C 92 % 1028.6 hPa 0.0 l/m 0.3 km/h (0 Bft) O-SO 0.00 h 0 W/m -2.6 C -1.5 C 0.6 km/h (0 Bft)
26.11.2008 20:00 -2.1 C 93 % 1028.8 hPa 0.0 l/m 1.4 km/h (1 Bft) O-SO 0.00 h 0 W/m -3.0 C -2.1 C 2.4 km/h (1 Bft)
26.11.2008 21:00 -2.1 C 94 % 1028.8 hPa 0.0 l/m 0.3 km/h (0 Bft) O-SO 0.00 h 0 W/m -3.0 C -2.1 C 0.8 km/h (0 Bft)
26.11.2008 22:00 -2.7 C 94 % 1028.7 hPa 0.0 l/m 0.2 km/h (0 Bft) O-SO 0.00 h 0 W/m -3.4 C -2.7 C 0.8 km/h (0 Bft)
26.11.2008 23:00 -3.1 C 95 % 1028.6 hPa 0.0 l/m 0.2 km/h (0 Bft) O-SO 0.00 h 0 W/m -3.9 C -3.1 C 0.7 km/h (0 Bft)
27.11.2008 00:00 -3.4 C 94 % 1028.4 hPa 0.0 l/m 0.1 km/h (0 Bft) O-SO 0.00 h 0 W/m -4.1 C -3.4 C 0.6 km/h (0 Bft)
27.11.2008 01:00 -3.8 C 94 % 1027.9 hPa 0.0 l/m 1.4 km/h (1 Bft) O-SO 0.00 h 0 W/m -4.6 C -3.8 C 2.3 km/h (1 Bft)
27.11.2008 02:00 -4.0 C 94 % 1027.3 hPa 0.0 l/m 0.2 km/h (0 Bft) O-SO 0.00 h 0 W/m -4.8 C -4.0 C 0.7 km/h (0 Bft)
27.11.2008 03:00 -3.9 C 95 % 1027.2 hPa 0.0 l/m 0.0 km/h (0 Bft) N 0.00 h 0 W/m -4.6 C -3.9 C 0.3 km/h (0 Bft)
27.11.2008 04:00 -4.2 C 96 % 1027.1 hPa 0.0 l/m 0.8 km/h (0 Bft) O-SO 0.00 h 0 W/m -4.8 C -4.2 C 1.3 km/h (1 Bft)
27.11.2008 05:00 -4.4 C 96 % 1027.0 hPa 0.0 l/m 1.6 km/h (1 Bft) O-SO 0.00 h 0 W/m -4.9 C -4.5 C 2.7 km/h (1 Bft)
27.11.2008 06:00 -3.7 C 96 % 1026.8 hPa 0.0 l/m 0.4 km/h (0 Bft) NO 0.00 h 0 W/m -4.3 C -3.7 C 1.1 km/h (1 Bft)
27.11.2008 07:00 -3.5 C 96 % 1026.7 hPa 0.0 l/m 0.4 km/h (0 Bft) NO 0.00 h 0 W/m -4.1 C -3.5 C 1.5 km/h (1 Bft)
27.11.2008 08:00 -3.2 C 95 % 1026.7 hPa 0.0 l/m 0.4 km/h (0 Bft) NO 0.00 h 13 W/m -3.9 C -3.2 C 1.3 km/h (1 Bft)
27.11.2008 09:00 -2.7 C 94 % 1026.6 hPa 0.0 l/m 0.6 km/h (0 Bft) NO 0.00 h 33 W/m -3.5 C -2.7 C 1.9 km/h (1 Bft)
27.11.2008 10:00 -2.1 C 93 % 1026.3 hPa 0.0 l/m 0.2 km/h (0 Bft) NO 0.00 h 72 W/m -3.1 C -2.1 C 0.8 km/h (0 Bft)
27.11.2008 11:00 -1.5 C 91 % 1025.6 hPa 0.0 l/m 0.1 km/h (0 Bft) NO 0.00 h 101 W/m -2.8 C -1.5 C 0.4 km/h (0 Bft)
27.11.2008 12:00 -0.8 C 87 % 1024.6 hPa 0.0 l/m 0.6 km/h (0 Bft) W-SW 0.00 h 110 W/m -2.7 C -0.9 C 1.4 km/h (1 Bft)
27.11.2008 13:00 0.3 C 80 % 1023.9 hPa 0.0 l/m 3.6 km/h (1 Bft) SW 0.38 h 180 W/m -2.7 C -0.3 C 6.7 km/h (2 Bft)
27.11.2008 14:00 1.4 C 74 % 1023.0 hPa 0.0 l/m 3.1 km/h (1 Bft) W-SW 1.00 h 213 W/m -2.6 C 1.1 C 5.5 km/h (1 Bft)
27.11.2008 15:00 1.0 C 77 % 1022.3 hPa 0.0 l/m 2.5 km/h (1 Bft) W-NW 0.77 h 88 W/m -2.6 C 0.9 C 4.8 km/h (1 Bft)
27.11.2008 16:00 -0.4 C 83 % 1022.1 hPa 0.0 l/m 0.1 km/h (0 Bft) W-NW 0.07 h 17 W/m -3.0 C -0.4 C 0.5 km/h (0 Bft)
27.11.2008 17:00 -1.4 C 87 % 1021.8 hPa 0.0 l/m 0.0 km/h (0 Bft) N 0.00 h 0 W/m -3.4 C -1.4 C 0.1 km/h (0 Bft)
27.11.2008 18:00 -2.4 C 90 % 1021.5 hPa 0.0 l/m 0.0 km/h (0 Bft) N 0.00 h 0 W/m -3.7 C -2.4 C 0.2 km/h (0 Bft)
27.11.2008 19:00 -3.0 C 92 % 1021.3 hPa 0.0 l/m 0.0 km/h (0 Bft) N 0.00 h 0 W/m -4.1 C -3.0 C 0.2 km/h (0 Bft)
27.11.2008 20:00 -3.6 C 92 % 1020.9 hPa 0.0 l/m 0.2 km/h (0 Bft) W-NW 0.00 h 0 W/m -4.6 C -3.6 C 0.9 km/h (0 Bft)
27.11.2008 21:00 -4.2 C 92 % 1020.4 hPa 0.0 l/m 0.1 km/h (0 Bft) W-NW 0.00 h 0 W/m -5.3 C -4.2 C 0.4 km/h (0 Bft)
27.11.2008 22:00 -4.6 C 92 % 1019.7 hPa 0.0 l/m 0.1 km/h (0 Bft) W-NW 0.00 h 0 W/m -5.7 C -4.6 C 0.2 km/h (0 Bft)
27.11.2008 23:00 -4.7 C 93 % 1019.1 hPa 0.0 l/m 0.4 km/h (0 Bft) W-NW 0.00 h 0 W/m -5.7 C -4.7 C 1.1 km/h (1 Bft)
28.11.2008 00:00 -4.4 C 93 % 1018.4 hPa 0.0 l/m 0.0 km/h (0 Bft) N 0.00 h 0 W/m -5.4 C -4.4 C 0.2 km/h (0 Bft)
28.11.2008 01:00 -4.3 C 94 % 1017.4 hPa 0.0 l/m 0.7 km/h (0 Bft) SO 0.00 h 0 W/m -5.2 C -4.4 C 1.6 km/h (1 Bft)
28.11.2008 02:00 -4.6 C 94 % 1016.3 hPa 0.0 l/m 2.8 km/h (1 Bft) O-SO 0.00 h 0 W/m -5.4 C -4.9 C 4.7 km/h (1 Bft)
28.11.2008 03:00 -4.7 C 94 % 1015.5 hPa 0.0 l/m 0.7 km/h (0 Bft) SO 0.00 h 0 W/m -5.4 C -4.7 C 1.7 km/h (1 Bft)
28.11.2008 04:00 -4.3 C 95 % 1014.7 hPa 0.0 l/m 0.2 km/h (0 Bft) S-SO 0.00 h 0 W/m -5.0 C -4.3 C 0.6 km/h (0 Bft)
28.11.2008 05:00 -4.1 C 95 % 1013.5 hPa 0.0 l/m 2.1 km/h (1 Bft) O-SO 0.00 h 0 W/m -4.8 C -4.3 C 3.9 km/h (1 Bft)
28.11.2008 06:00 -4.3 C 94 % 1012.8 hPa 0.0 l/m 1.5 km/h (1 Bft) O-SO 0.00 h 0 W/m -5.1 C -4.3 C 3.4 km/h (1 Bft)
28.11.2008 07:00 -4.7 C 94 % 1011.8 hPa 0.0 l/m 1.2 km/h (1 Bft) N-NO 0.00 h 0 W/m -5.5 C -4.7 C 3.0 km/h (1 Bft)
28.11.2008 08:00 -4.9 C 94 % 1011.1 hPa 0.0 l/m 1.6 km/h (1 Bft) O-SO 0.00 h 13 W/m -5.7 C -5.0 C 3.9 km/h (1 Bft)
28.11.2008 09:00 -4.7 C 94 % 1010.3 hPa 0.0 l/m 1.0 km/h (0 Bft) O 0.00 h 44 W/m -5.5 C -4.9 C 2.6 km/h (1 Bft)
28.11.2008 10:00 -4.4 C 93 % 1009.0 hPa 0.0 l/m 2.0 km/h (1 Bft) O-SO 0.00 h 68 W/m -5.4 C -4.5 C 3.8 km/h (1 Bft)
28.11.2008 11:00 -3.4 C 90 % 1007.1 hPa 0.0 l/m 0.5 km/h (0 Bft) O-SO 0.00 h 85 W/m -4.8 C -3.4 C 1.5 km/h (1 Bft)
28.11.2008 12:00 -2.7 C 88 % 1005.4 hPa 0.0 l/m 1.2 km/h (1 Bft) N 0.00 h 139 W/m -4.4 C -2.7 C 3.4 km/h (1 Bft)
28.11.2008 13:00 -2.5 C 87 % 1003.8 hPa 0.0 l/m 2.1 km/h (1 Bft) W-NW 0.00 h 90 W/m -4.4 C -2.7 C 4.0 km/h (1 Bft)
28.11.2008 14:00 -2.1 C 87 % 1002.3 hPa 0.0 l/m 1.3 km/h (1 Bft) NW 0.00 h 76 W/m -3.9 C -2.1 C 3.0 km/h (1 Bft)
28.11.2008 15:00 -1.8 C 87 % 1001.7 hPa 0.0 l/m 0.7 km/h (0 Bft) NW 0.00 h 40 W/m -3.7 C -1.8 C 2.0 km/h (1 Bft)
28.11.2008 16:00 -2.0 C 87 % 1000.9 hPa 0.0 l/m 1.0 km/h (0 Bft) NO 0.00 h 11 W/m -3.8 C -2.1 C 1.9 km/h (1 Bft)
28.11.2008 17:00 -2.4 C 89 % 1000.7 hPa 0.0 l/m 1.1 km/h (1 Bft) O-NO 0.00 h 0 W/m -4.0 C -2.5 C 2.2 km/h (1 Bft)
28.11.2008 18:00 -2.8 C 90 % 1000.8 hPa 0.0 l/m 0.2 km/h (0 Bft) O-SO 0.00 h 0 W/m -4.2 C -2.8 C 0.5 km/h (0 Bft)
28.11.2008 19:00 -3.0 C 91 % 1000.6 hPa 0.0 l/m 0.9 km/h (0 Bft) SO 0.00 h 0 W/m -4.2 C -3.0 C 1.9 km/h (1 Bft)
28.11.2008 20:00 -2.8 C 92 % 1000.4 hPa 0.0 l/m 0.9 km/h (0 Bft) S 0.00 h 0 W/m -3.8 C -2.8 C 2.6 km/h (1 Bft)
28.11.2008 21:00 -2.9 C 93 % 1000.6 hPa 0.0 l/m 1.3 km/h (1 Bft) S-SO 0.00 h 0 W/m -3.8 C -2.9 C 3.1 km/h (1 Bft)
28.11.2008 22:00 -3.0 C 93 % 1000.5 hPa 0.0 l/m 0.4 km/h (0 Bft) SW 0.00 h 0 W/m -4.0 C -3.0 C 1.2 km/h (1 Bft)
28.11.2008 23:00 -2.8 C 93 % 999.9 hPa 0.0 l/m 2.7 km/h (1 Bft) SO 0.00 h 0 W/m -3.7 C -3.2 C 4.8 km/h (1 Bft)
29.11.2008 00:00 -2.5 C 93 % 999.8 hPa 0.0 l/m 0.7 km/h (0 Bft) S-SO 0.00 h 0 W/m -3.5 C -2.5 C 2.0 km/h (1 Bft)
29.11.2008 01:00 -2.5 C 93 % 999.4 hPa 0.0 l/m 0.0 km/h (0 Bft) N 0.00 h 0 W/m -3.5 C -2.5 C 0.0 km/h (0 Bft)
29.11.2008 02:00 -2.4 C 93 % 999.4 hPa 0.0 l/m 1.2 km/h (1 Bft) SO 0.00 h 0 W/m -3.3 C -2.4 C 1.8 km/h (1 Bft)
29.11.2008 03:00 -2.2 C 93 % 999.3 hPa 0.0 l/m 0.3 km/h (0 Bft) SO 0.00 h 0 W/m -3.2 C -2.2 C 0.7 km/h (0 Bft)
29.11.2008 04:00 -2.0 C 92 % 998.9 hPa 0.0 l/m 1.0 km/h (0 Bft) SO 0.00 h 0 W/m -3.2 C -2.0 C 1.5 km/h (1 Bft)
29.11.2008 05:00 -1.8 C 92 % 998.7 hPa 0.0 l/m 0.5 km/h (0 Bft) SO 0.00 h 0 W/m -3.0 C -1.8 C 1.2 km/h (1 Bft)
29.11.2008 06:00 -1.8 C 91 % 998.4 hPa 0.0 l/m 0.1 km/h (0 Bft) SO 0.00 h 0 W/m -3.1 C -1.8 C 0.6 km/h (0 Bft)
29.11.2008 07:00 -1.8 C 91 % 998.4 hPa 0.0 l/m 0.1 km/h (0 Bft) SO 0.00 h 6 W/m -3.1 C -1.8 C 0.7 km/h (0 Bft)
29.11.2008 08:00 -1.8 C 91 % 998.5 hPa 0.0 l/m 0.8 km/h (0 Bft) O-SO 0.13 h 27 W/m -3.1 C -1.9 C 1.2 km/h (1 Bft)
29.11.2008 09:00 -1.5 C 90 % 998.8 hPa 0.0 l/m 0.0 km/h (0 Bft) O-SO 0.40 h 96 W/m -2.8 C -1.5 C 0.1 km/h (0 Bft)
29.11.2008 10:00 -0.4 C 87 % 998.9 hPa 0.0 l/m 0.5 km/h (0 Bft) NO 0.10 h 117 W/m -2.3 C -0.4 C 1.8 km/h (1 Bft)
29.11.2008 11:00 0.8 C 83 % 998.5 hPa 0.0 l/m 0.9 km/h (0 Bft) NO 0.82 h 222 W/m -1.9 C 0.8 C 2.4 km/h (1 Bft)
29.11.2008 12:00 1.7 C 80 % 997.9 hPa 0.0 l/m 0.3 km/h (0 Bft) W-NW 0.70 h 224 W/m -1.3 C 1.7 C 1.2 km/h (1 Bft)
29.11.2008 13:00 2.8 C 78 % 997.4 hPa 0.0 l/m 1.1 km/h (1 Bft) O 0.85 h 236 W/m -0.7 C 2.7 C 2.7 km/h (1 Bft)
29.11.2008 14:00 3.1 C 77 % 996.9 hPa 0.0 l/m 0.9 km/h (0 Bft) O 0.88 h 183 W/m -0.6 C 3.1 C 2.9 km/h (1 Bft)
29.11.2008 15:00 2.5 C 78 % 996.5 hPa 0.0 l/m 0.9 km/h (0 Bft) SO 0.23 h 54 W/m -1.0 C 2.5 C 2.3 km/h (1 Bft)
29.11.2008 16:00 1.5 C 82 % 996.9 hPa 0.0 l/m 0.5 km/h (0 Bft) SO 0.13 h 19 W/m -1.3 C 1.5 C 1.2 km/h (1 Bft)
29.11.2008 17:00 0.5 C 86 % 996.5 hPa 0.0 l/m 0.2 km/h (0 Bft) SO 0.00 h 0 W/m -1.5 C 0.5 C 1.1 km/h (0 Bft)
29.11.2008 18:00 -0.0 C 89 % 996.3 hPa 0.0 l/m 1.1 km/h (1 Bft) NO 0.00 h 0 W/m -1.6 C -0.2 C 2.5 km/h (1 Bft)
29.11.2008 19:00 0.5 C 85 % 995.5 hPa 0.0 l/m 1.2 km/h (1 Bft) O 0.00 h 0 W/m -1.7 C 0.5 C 3.4 km/h (1 Bft)
29.11.2008 20:00 0.5 C 85 % 994.5 hPa 0.0 l/m 1.3 km/h (1 Bft) O 0.00 h 0 W/m -1.7 C 0.4 C 3.1 km/h (1 Bft)
29.11.2008 21:00 1.3 C 82 % 993.4 hPa 0.0 l/m 2.7 km/h (1 Bft) O-SO 0.00 h 0 W/m -1.5 C 0.8 C 5.5 km/h (1 Bft)
29.11.2008 22:00 1.7 C 79 % 992.5 hPa 0.0 l/m 3.1 km/h (1 Bft) O-SO 0.00 h 0 W/m -1.4 C 0.9 C 4.9 km/h (1 Bft)
29.11.2008 23:00 1.2 C 84 % 991.6 hPa 0.0 l/m 0.5 km/h (0 Bft) NO 0.00 h 0 W/m -1.3 C 1.2 C 1.7 km/h (1 Bft)
30.11.2008 00:00 1.1 C 84 % 991.7 hPa 0.0 l/m 0.6 km/h (0 Bft) SO 0.00 h 0 W/m -1.2 C 1.1 C 1.4 km/h (1 Bft)
30.11.2008 01:00 0.8 C 86 % 992.2 hPa 0.0 l/m 1.8 km/h (1 Bft) W-SW 0.00 h 0 W/m -1.2 C 0.6 C 3.5 km/h (1 Bft)
30.11.2008 02:00 1.0 C 86 % 993.6 hPa 0.0 l/m 2.3 km/h (1 Bft) O 0.00 h 0 W/m -1.2 C 0.7 C 4.3 km/h (1 Bft)
30.11.2008 03:00 0.7 C 85 % 994.1 hPa 0.0 l/m 3.3 km/h (1 Bft) O-SO 0.00 h 0 W/m -1.6 C 0.2 C 5.0 km/h (1 Bft)
30.11.2008 04:00 0.8 C 85 % 994.6 hPa 0.0 l/m 2.2 km/h (1 Bft) O-SO 0.00 h 0 W/m -1.5 C 0.6 C 3.5 km/h (1 Bft)
30.11.2008 05:00 0.5 C 87 % 995.3 hPa 0.0 l/m 1.4 km/h (1 Bft) O-SO 0.00 h 0 W/m -1.4 C 0.2 C 2.5 km/h (1 Bft)
30.11.2008 06:00 -0.0 C 88 % 995.5 hPa 0.0 l/m 0.6 km/h (0 Bft) SO 0.00 h 0 W/m -1.7 C -0.1 C 1.4 km/h (1 Bft)
30.11.2008 07:00 -0.3 C 90 % 996.4 hPa 0.0 l/m 0.6 km/h (0 Bft) SO 0.00 h 5 W/m -1.7 C -0.3 C 1.2 km/h (1 Bft)
30.11.2008 08:00 -0.2 C 91 % 997.4 hPa 0.0 l/m 0.5 km/h (0 Bft) SO 0.48 h 39 W/m -1.4 C -0.2 C 0.9 km/h (0 Bft)
30.11.2008 09:00 1.2 C 90 % 997.6 hPa 0.0 l/m 0.0 km/h (0 Bft) SO 1.00 h 178 W/m -0.3 C 1.2 C 0.3 km/h (0 Bft)
30.11.2008 10:00 3.5 C 83 % 997.4 hPa 0.0 l/m 0.8 km/h (0 Bft) NO 0.57 h 209 W/m 0.8 C 3.5 C 2.1 km/h (1 Bft)
30.11.2008 11:00 6.4 C 73 % 997.2 hPa 0.0 l/m 1.4 km/h (1 Bft) SO 1.00 h 308 W/m 1.8 C 6.3 C 3.3 km/h (1 Bft)
30.11.2008 12:00 7.0 C 69 % 996.7 hPa 0.0 l/m 1.7 km/h (1 Bft) O-SO 0.93 h 269 W/m 1.8 C 6.9 C 3.8 km/h (1 Bft)
30.11.2008 13:00 6.4 C 72 % 996.3 hPa 0.0 l/m 2.4 km/h (1 Bft) O-SO 0.53 h 205 W/m 1.7 C 6.3 C 5.2 km/h (1 Bft)
30.11.2008 14:00 6.4 C 72 % 996.3 hPa 0.0 l/m 4.7 km/h (1 Bft) O-SO 1.00 h 240 W/m 1.6 C 5.7 C 8.5 km/h (2 Bft)
30.11.2008 15:00 5.9 C 73 % 996.5 hPa 0.0 l/m 3.5 km/h (1 Bft) O-SO 0.80 h 89 W/m 1.3 C 5.5 C 6.3 km/h (2 Bft)
30.11.2008 16:00 4.8 C 76 % 997.1 hPa 0.0 l/m 1.0 km/h (0 Bft) O-SO 0.00 h 16 W/m 0.9 C 4.8 C 2.5 km/h (1 Bft)
30.11.2008 17:00 3.1 C 82 % 997.7 hPa 0.0 l/m 1.8 km/h (1 Bft) O 0.00 h 0 W/m 0.2 C 3.0 C 2.7 km/h (1 Bft)
30.11.2008 18:00 1.1 C 89 % 998.5 hPa 0.0 l/m 1.7 km/h (1 Bft) O 0.00 h 0 W/m -0.5 C 0.8 C 3.2 km/h (1 Bft)
30.11.2008 19:00 0.3 C 91 % 999.0 hPa 0.0 l/m 2.9 km/h (1 Bft) O-SO 0.00 h 0 W/m -0.9 C -0.3 C 4.3 km/h (1 Bft)
30.11.2008 20:00 -0.4 C 94 % 999.1 hPa 0.0 l/m 0.1 km/h (0 Bft) O-SO 0.00 h 0 W/m -1.2 C -0.4 C 0.3 km/h (0 Bft)
30.11.2008 21:00 -0.8 C 96 % 998.9 hPa 0.0 l/m 0.7 km/h (0 Bft) O-SO 0.00 h 0 W/m -1.4 C -0.8 C 1.2 km/h (1 Bft)
30.11.2008 22:00 -0.8 C 97 % 998.4 hPa 0.0 l/m 0.4 km/h (0 Bft) SO 0.00 h 0 W/m -1.3 C -0.9 C 0.8 km/h (0 Bft)
30.11.2008 23:00 -0.8 C 97 % 998.6 hPa 0.0 l/m 0.1 km/h (0 Bft) SO 0.00 h 0 W/m -1.3 C -0.8 C 0.4 km/h (0 Bft)
Min-Datum _ 28.11.08 30.11.08 30.11.08 - 24.11.08 - - - 27.11.08 28.11.08 24.11.08
_ Min-Zeit 08:27 12:09 00:00 - 00:01 - - - 23:04 08:33 00:18
Minimum _ -5.0 C 67 % 991.0 hPa - 0.0 km/h (0 Bft) - - - -5.9 C -8.2 C 0.0 km/h (0 Bft)
Max-Datum _ 30.11.08 24.11.08 26.11.08 24.11.08 24.11.08 - 24.11.08 25.11.08 24.11.08 30.11.08 24.11.08
_ Max-Zeit 12:10 04:38 19:30 01:00 12:07 - 07:57 12:19 11:40 12:10 11:59
Maximum _ 7.6 C 99 % 1028.8 hPa 1.4 l/m 12.2 km/h
W-SW (2 Bft)
- 0.02 h 483 W/m 2.9 C 7.6 C 24.3 km/h
S-SW (4 Bft)
Durchschnitt _ -0.5 C 90 % 1008.4 hPa #8.0 l/m 1.3 km/h (1 Bft) O-SO #23:32 h 114 W/m -1.9 C -0.6 C 2.6 km/h (1 Bft)
© Kaiko 2008